Time;durP1;ratioP1;P1;durP2;ratioP2;P2;SDS_P1;SDS_P2;PMS_P1;PMS_P2;Temp;Humidity;BMP_temperature;BMP_pressure;BME280_temperature;BME280_humidity;BME280_pressure;Samples;Min_cycle;Max_cycle;Signal;HPM_P1;HPM_P2
2022/11/11 00:02:13;;;;;;;26.20;18.20;;;;;;;6.24;93.48;101685.40;100568;1294;81109;-59
2022/11/11 00:04:45;;;;;;;25.70;17.50;;;;;;;6.31;93.49;101682.60;100559;1289;88539;-59
2022/11/11 00:07:21;;;;;;;24.30;17.50;;;;;;;6.39;93.48;101683.46;100575;1296;81306;-60
2022/11/11 00:09:54;;;;;;;25.10;18.00;;;;;;;6.48;93.71;101687.03;100436;1290;98728;-58
2022/11/11 00:12:23;;;;;;;25.60;17.40;;;;;;;6.54;93.64;101689.04;100543;1292;94976;-58
2022/11/11 00:14:54;;;;;;;25.00;16.60;;;;;;;6.63;93.70;101689.14;100548;1294;83384;-60
2022/11/11 00:26:04;;;;;;;23.10;17.30;;;;;;;6.78;93.62;101686.77;100580;1290;93055;-60
2022/11/11 00:28:37;;;;;;;24.60;17.10;;;;;;;6.83;93.71;101688.14;100572;1291;81563;-60
2022/11/11 00:31:10;;;;;;;22.20;16.30;;;;;;;6.85;93.57;101687.42;100601;1290;89630;-58
2022/11/11 00:33:43;;;;;;;26.60;18.50;;;;;;;6.84;93.43;101686.42;100589;1287;82141;-58
2022/11/11 00:36:14;;;;;;;24.20;17.40;;;;;;;6.85;93.54;101683.97;100619;1288;98933;-57
2022/11/11 00:38:48;;;;;;;25.50;17.40;;;;;;;6.81;93.28;101682.05;100466;1298;93081;-58
2022/11/11 00:41:23;;;;;;;21.90;16.80;;;;;;;6.73;93.18;101683.08;100632;1295;81604;-59
2022/11/11 00:43:51;;;;;;;;;;;;;;;6.69;93.18;101686.48;100620;1296;87623;-60
2022/11/11 00:52:09;;;;;;;25.40;17.00;;;;;;;6.84;93.67;101684.45;100368;1296;94986;-59
2022/11/11 00:54:38;;;;;;;23.20;16.80;;;;;;;6.92;93.63;101684.28;100597;1294;81073;-57
2022/11/11 00:57:10;;;;;;;23.80;17.00;;;;;;;7.07;93.69;101685.80;100545;1296;86668;-58
2022/11/11 00:59:42;;;;;;;25.90;16.60;;;;;;;7.15;93.64;101688.67;100566;1298;82623;-58
2022/11/11 01:02:14;;;;;;;23.40;17.00;;;;;;;7.17;93.79;101686.33;100562;1290;97692;-58
2022/11/11 01:04:45;;;;;;;25.00;16.90;;;;;;;7.21;93.68;101684.34;100534;1296;95500;-58
2022/11/11 01:07:20;;;;;;;23.10;16.80;;;;;;;7.30;93.75;101683.55;100576;1291;83839;-58
2022/11/11 01:09:50;;;;;;;25.50;17.00;;;;;;;7.40;93.78;101678.11;100609;1296;86397;-57
2022/11/11 01:12:19;;;;;;;30.00;16.60;;;;;;;7.47;93.79;101680.57;100588;1296;79528;-56
2022/11/11 01:14:52;;;;;;;21.30;16.30;;;;;;;7.49;93.85;101683.91;100644;1290;97963;-57
2022/11/11 01:17:22;;;;;;;26.70;17.20;;;;;;;7.57;93.76;101684.14;100639;1292;94928;-55
2022/11/11 01:19:54;;;;;;;24.50;16.40;;;;;;;7.62;93.74;101681.70;100629;1289;82705;-59
2022/11/11 01:22:23;;;;;;;23.40;15.30;;;;;;;7.66;93.70;101679.51;100646;1290;87801;-59
2022/11/11 01:24:53;;;;;;;25.30;16.40;;;;;;;7.69;93.71;101677.98;100637;1288;82547;-58
2022/11/11 01:27:22;;;;;;;26.20;17.80;;;;;;;7.72;93.73;101679.83;100638;1294;98633;-57
2022/11/11 01:29:54;;;;;;;29.10;19.60;;;;;;;7.78;93.76;101679.15;100585;1294;94877;-60
2022/11/11 01:32:23;;;;;;;26.20;17.80;;;;;;;7.81;93.65;101676.54;100611;1295;82288;-59
2022/11/11 01:34:53;;;;;;;24.90;17.70;;;;;;;7.86;93.60;101679.55;100602;1296;88326;-59
2022/11/11 01:37:25;;;;;;;26.30;17.40;;;;;;;7.85;93.60;101676.72;100590;1296;82433;-59
2022/11/11 01:39:57;;;;;;;25.90;18.20;;;;;;;7.90;93.57;101676.48;100452;1298;97920;-59
2022/11/11 01:42:28;;;;;;;24.30;16.90;;;;;;;7.92;93.60;101673.02;100559;1294;95064;-60
2022/11/11 01:45:02;;;;;;;24.00;17.10;;;;;;;7.93;93.48;101670.08;100581;1282;82601;-59
2022/11/11 01:49:17;;;;;;;25.50;17.40;;;;;;;7.93;93.57;101666.08;100577;1296;88409;-59
2022/11/11 01:50:25;;;;;;;27.90;17.30;;;;;;;7.96;93.48;101663.88;100554;1288;81598;-56
2022/11/11 01:52:54;;;;;;;25.80;17.50;;;;;;;7.98;93.48;101666.00;100552;1295;98101;-58
2022/11/11 01:55:25;;;;;;;24.30;16.60;;;;;;;7.98;93.31;101659.56;100592;1294;93999;-59
2022/11/11 01:58:03;;;;;;;24.40;17.10;;;;;;;7.91;93.30;101653.73;100565;1294;83057;-59
2022/11/11 02:00:35;;;;;;;21.20;15.60;;;;;;;7.91;93.33;101656.45;100607;1294;88482;-57
2022/11/11 02:03:09;;;;;;;;;;;;;;;7.88;93.38;101655.13;100652;1293;81852;-58
2022/11/11 02:05:44;;;;;;;21.70;16.30;;;;;;;7.89;93.44;101652.52;100503;1290;98639;-59
2022/11/11 02:08:32;;;;;;;24.30;16.20;;;;;;;7.88;93.41;101653.10;100588;1291;94401;-60
2022/11/11 02:11:09;;;;;;;29.30;16.80;;;;;;;7.85;93.30;101648.23;100614;1293;80686;-59
2022/11/11 02:16:34;;;;;;;25.20;15.10;;;;;;;7.77;93.31;101647.52;100587;1295;79485;-57
2022/11/11 02:19:05;;;;;;;25.00;15.20;;;;;;;7.72;93.33;101647.58;100543;1298;98676;-57
2022/11/11 02:21:44;;;;;;;24.10;16.20;;;;;;;7.71;93.37;101645.88;100565;1288;94736;-58
2022/11/11 02:24:21;;;;;;;24.20;15.70;;;;;;;7.65;93.17;101644.11;100594;1288;82522;-57
2022/11/11 02:26:51;;;;;;;25.70;16.10;;;;;;;7.53;93.24;101643.11;100530;1295;87463;-57
2022/11/11 02:29:22;;;;;;;18.70;14.80;;;;;;;7.45;93.29;101644.14;100580;1296;78904;-59
2022/11/11 02:31:51;;;;;;;23.00;16.00;;;;;;;7.43;93.28;101643.50;100564;1295;98749;-59
2022/11/11 02:34:31;;;;;;;23.90;15.50;;;;;;;7.40;93.28;101646.56;100540;1282;95946;-57
2022/11/11 02:37:06;;;;;;;21.70;14.20;;;;;;;7.37;93.28;101651.77;100566;1296;81499;-57
2022/11/11 02:39:40;;;;;;;21.00;15.00;;;;;;;7.32;93.27;101658.09;100617;1290;86786;-58
2022/11/11 02:42:14;;;;;;;26.10;16.10;;;;;;;7.26;93.26;101659.18;100597;1295;82000;-58
2022/11/11 02:44:47;;;;;;;47.60;30.50;;;;;;;7.18;93.23;101664.25;100471;1292;98757;-60
2022/11/11 02:47:17;;;;;;;24.90;18.00;;;;;;;7.15;93.25;101659.66;100571;1289;94902;-59
2022/11/11 02:49:46;;;;;;;23.40;16.90;;;;;;;7.10;93.30;101667.80;100630;1290;81431;-57
2022/11/11 02:52:16;;;;;;;25.40;16.50;;;;;;;7.02;93.20;101668.34;100517;1290;88952;-58
2022/11/11 02:54:46;;;;;;;21.70;15.30;;;;;;;7.00;93.28;101672.98;100652;1296;81503;-60
2022/11/11 02:57:18;;;;;;;23.80;15.30;;;;;;;6.96;93.19;101672.05;100562;1291;96128;-60
2022/11/11 02:59:47;;;;;;;23.00;15.20;;;;;;;6.90;93.20;101673.88;100549;1291;94925;-59
2022/11/11 03:02:17;;;;;;;21.80;14.70;;;;;;;6.87;93.17;101673.02;100559;1291;81470;-59
2022/11/11 03:04:46;;;;;;;23.50;16.60;;;;;;;6.89;93.30;101678.25;100582;1298;87043;-59
2022/11/11 03:07:22;;;;;;;21.80;14.70;;;;;;;6.90;93.35;101677.66;100527;1290;79976;-59
2022/11/11 03:09:54;;;;;;;23.00;15.80;;;;;;;6.90;93.56;101678.88;100590;1296;97291;-59
2022/11/11 03:12:27;;;;;;;22.20;15.60;;;;;;;6.89;93.56;101680.59;100543;1296;94943;-59
2022/11/11 03:14:56;;;;;;;23.60;15.30;;;;;;;6.91;93.70;101680.91;100607;1294;83252;-58
2022/11/11 03:17:39;;;;;;;22.30;15.30;;;;;;;6.92;93.49;101683.77;100532;1289;89592;-57
2022/11/11 03:23:07;;;;;;;20.60;13.60;;;;;;;6.89;93.50;101691.73;100599;1291;96871;-59
2022/11/11 03:25:40;;;;;;;22.80;14.70;;;;;;;6.87;93.73;101686.35;100565;1296;94204;-59
2022/11/11 03:28:11;;;;;;;20.30;14.30;;;;;;;6.86;93.62;101678.85;100642;1296;81205;-58
2022/11/11 03:30:46;;;;;;;22.80;14.60;;;;;;;6.88;93.79;101681.07;100612;1288;89153;-58
2022/11/11 03:33:19;;;;;;;23.20;14.70;;;;;;;6.94;93.83;101684.41;100592;1291;81533;-56
2022/11/11 03:35:51;;;;;;;23.50;14.30;;;;;;;7.01;93.92;101680.20;100641;1295;98896;-57
2022/11/11 03:38:24;;;;;;;21.00;14.90;;;;;;;7.02;94.12;101684.22;100626;1289;95418;-57
2022/11/11 03:40:58;;;;;;;21.30;15.10;;;;;;;7.08;94.10;101686.81;100627;1295;81246;-58
2022/11/11 03:43:32;;;;;;;21.90;15.40;;;;;;;7.11;94.17;101694.75;100588;1291;86911;-60
2022/11/11 03:46:06;;;;;;;22.30;15.30;;;;;;;7.12;94.14;101703.60;100618;1289;82368;-57
2022/11/11 03:48:41;;;;;;;18.70;13.30;;;;;;;7.12;94.09;101703.97;100606;1291;96854;-57
2022/11/11 03:51:12;;;;;;;21.20;13.90;;;;;;;7.12;94.00;101700.04;100578;1289;95436;-59
2022/11/11 03:53:43;;;;;;;19.70;13.10;;;;;;;7.13;93.97;101698.55;100534;1293;82351;-60
2022/11/11 03:56:15;;;;;;;21.10;14.70;;;;;;;7.17;94.14;101698.33;100571;1296;89203;-57
2022/11/11 03:58:49;;;;;;;23.30;13.30;;;;;;;7.22;94.15;101696.51;100540;1290;82212;-58
2022/11/11 04:18:12;;;;;;;25.60;14.10;;;;;;;7.53;94.14;101693.80;100565;1289;95210;-59
2022/11/11 04:23:50;;;;;;;20.30;13.80;;;;;;;7.58;94.08;101720.08;100177;1302;88611;-59
2022/11/11 04:26:20;;;;;;;21.00;14.10;;;;;;;7.60;94.13;101716.31;100209;1300;79968;-57
2022/11/11 04:32:34;;;;;;;20.80;13.00;;;;;;;7.67;94.11;101726.44;100593;1294;94831;-59
2022/11/11 04:34:30;;;;;;;19.00;12.90;;;;;;;7.74;94.03;101733.71;100612;1298;82418;-59
2022/11/11 04:37:01;;;;;;;21.80;13.20;;;;;;;7.75;94.00;101737.17;100538;1294;89014;-58
2022/11/11 04:42:19;;;;;;;20.20;13.30;;;;;;;7.81;93.96;101722.80;100250;1301;98257;-58
2022/11/11 04:47:52;;;;;;;23.30;14.50;;;;;;;7.88;93.94;101724.89;100553;1290;82619;-60
2022/11/11 04:50:22;;;;;;;20.90;12.70;;;;;;;7.89;93.92;101726.04;100578;1294;88514;-59
2022/11/11 04:52:54;;;;;;;20.00;13.10;;;;;;;7.89;94.03;101720.48;100561;1288;81705;-60
2022/11/11 04:58:15;;;;;;;26.40;15.10;;;;;;;7.93;93.91;101719.39;100587;1294;94511;-60
2022/11/11 05:00:46;;;;;;;21.30;13.00;;;;;;;7.95;93.88;101718.50;100596;1296;82562;-60
2022/11/11 05:03:20;;;;;;;19.90;13.00;;;;;;;7.93;93.88;101717.77;100574;1289;88432;-59
2022/11/11 05:08:58;;;;;;;22.30;14.20;;;;;;;7.95;93.95;101723.85;100604;1294;99157;-57
2022/11/11 05:11:30;;;;;;;21.50;12.70;;;;;;;7.98;94.02;101735.73;100675;1294;95093;-57
2022/11/11 05:22:33;;;;;;;20.50;12.00;;;;;;;8.12;93.79;101712.26;100554;1296;98951;-58
2022/11/11 05:27:50;;;;;;;19.20;12.20;;;;;;;8.17;93.88;101706.87;100550;1288;82180;-57
2022/11/11 05:30:25;;;;;;;18.50;12.10;;;;;;;8.20;93.84;101711.13;100604;1296;88324;-58
2022/11/11 05:32:56;;;;;;;19.70;12.40;;;;;;;8.25;93.83;101712.80;100545;1296;82122;-57
2022/11/11 05:35:26;;;;;;;16.40;11.00;;;;;;;8.29;93.69;101713.92;100582;1293;97029;-56
2022/11/11 05:40:49;;;;;;;17.70;11.70;;;;;;;8.32;93.76;101706.95;100578;1294;80774;-57
2022/11/11 05:43:21;;;;;;;18.30;11.80;;;;;;;8.31;93.61;101704.02;100553;1295;87359;-58
2022/11/11 05:45:52;;;;;;;17.70;11.80;;;;;;;8.31;93.74;101711.02;100578;1295;81040;-57
2022/11/11 05:48:24;;;;;;;16.70;11.20;;;;;;;8.32;93.59;101710.40;100542;1296;98471;-57
2022/11/11 05:51:00;;;;;;;19.20;11.30;;;;;;;8.35;93.58;101714.09;100577;1294;94135;-60
2022/11/11 05:53:32;;;;;;;19.50;12.00;;;;;;;8.36;93.60;101713.45;100644;1288;81873;-60
2022/11/11 05:56:05;;;;;;;21.60;11.30;;;;;;;8.38;93.70;101718.05;100647;1298;89030;-59
2022/11/11 05:58:43;;;;;;;20.30;11.40;;;;;;;8.39;93.61;101722.66;100623;1289;80857;-59
2022/11/11 06:01:14;;;;;;;19.90;11.50;;;;;;;8.37;93.64;101727.84;100611;1291;99398;-58
2022/11/11 06:03:48;;;;;;;20.90;12.30;;;;;;;8.39;93.65;101721.76;100584;1288;94639;-58
2022/11/11 06:06:18;;;;;;;15.60;10.20;;;;;;;8.39;93.54;101718.41;100594;1296;81544;-60
2022/11/11 06:08:50;;;;;;;20.30;12.20;;;;;;;8.39;93.66;101718.40;100570;1293;88104;-59
2022/11/11 06:11:24;;;;;;;17.60;10.90;;;;;;;8.45;93.50;101720.27;100535;1296;80306;-56
2022/11/11 06:13:56;;;;;;;18.40;11.10;;;;;;;8.46;93.51;101717.55;100570;1294;96805;-58
2022/11/11 06:16:28;;;;;;;17.80;11.50;;;;;;;8.48;93.48;101717.14;100546;1296;93807;-59
2022/11/11 06:18:58;;;;;;;16.20;10.90;;;;;;;8.50;93.51;101709.60;100554;1293;81910;-59
2022/11/11 06:21:31;;;;;;;17.30;11.50;;;;;;;8.53;93.41;101712.00;100537;1295;89924;-57
2022/11/11 06:24:03;;;;;;;19.80;10.70;;;;;;;8.55;93.51;101717.59;100538;1293;80407;-57
2022/11/11 06:26:37;;;;;;;17.80;11.00;;;;;;;8.59;93.41;101721.13;100571;1296;97110;-59
2022/11/11 06:29:06;;;;;;;18.70;10.60;;;;;;;8.60;93.30;101723.87;100550;1293;92675;-60
2022/11/11 06:31:36;;;;;;;17.00;10.80;;;;;;;8.62;93.32;101725.83;100469;1291;81609;-57
2022/11/11 06:34:14;;;;;;;19.00;11.20;;;;;;;8.64;93.36;101724.73;100569;1290;88486;-56
2022/11/11 06:36:46;;;;;;;21.10;11.20;;;;;;;8.70;93.24;101723.09;100611;1294;82397;-57
2022/11/11 06:39:22;;;;;;;20.80;11.40;;;;;;;8.70;93.29;101714.44;100572;1294;96716;-59
2022/11/11 06:41:53;;;;;;;19.00;10.90;;;;;;;8.73;93.25;101722.99;100581;1298;93684;-58
2022/11/11 06:44:24;;;;;;;18.10;10.80;;;;;;;8.73;93.24;101729.81;100576;1296;82265;-57
2022/11/11 06:46:56;;;;;;;19.90;10.30;;;;;;;8.74;93.21;101737.98;100597;1288;87481;-58
2022/11/11 06:49:30;;;;;;;17.90;10.10;;;;;;;8.78;93.19;101741.67;100617;1295;80660;-59
2022/11/11 06:52:07;;;;;;;17.40;11.10;;;;;;;8.81;93.14;101741.41;100595;1294;98398;-60
2022/11/11 06:54:38;;;;;;;;;;;;;;;8.83;93.04;101739.82;100621;1293;95509;-58
2022/11/11 06:57:07;;;;;;;16.60;10.20;;;;;;;8.86;93.02;101740.41;100598;1296;82003;-58
2022/11/11 06:59:37;;;;;;;17.80;11.00;;;;;;;8.87;93.02;101740.69;100589;1288;87567;-59
2022/11/11 07:02:05;;;;;;;16.40;9.60;;;;;;;8.89;93.02;101735.67;100592;1296;81512;-59
2022/11/11 07:04:35;;;;;;;17.50;9.60;;;;;;;8.90;93.01;101729.84;100565;1294;98629;-57
2022/11/11 07:07:08;;;;;;;19.10;10.20;;;;;;;8.94;92.88;101726.95;100506;1293;93586;-57
2022/11/11 07:09:40;;;;;;;14.40;9.40;;;;;;;8.94;92.88;101721.48;100600;1290;81610;-55
2022/11/11 07:12:11;;;;;;;16.90;9.40;;;;;;;8.96;92.93;101730.84;100574;1295;88337;-57
2022/11/11 07:14:40;;;;;;;17.10;9.10;;;;;;;8.95;92.84;101731.86;100557;1289;82366;-59
2022/11/11 07:17:12;;;;;;;15.60;10.00;;;;;;;9.00;92.78;101731.33;100534;1289;96549;-59
2022/11/11 07:19:43;;;;;;;19.90;9.90;;;;;;;9.06;92.60;101727.60;100578;1294;95343;-58
2022/11/11 07:22:13;;;;;;;15.20;9.30;;;;;;;9.08;92.53;101725.59;100519;1296;82074;-59
2022/11/11 07:24:44;;;;;;;18.30;9.70;;;;;;;9.10;92.48;101723.59;100568;1298;87766;-57
2022/11/11 07:27:16;;;;;;;18.40;10.20;;;;;;;9.05;92.59;101717.56;100574;1294;82651;-57
2022/11/11 07:29:48;;;;;;;15.60;9.10;;;;;;;9.05;92.61;101713.30;100577;1296;99115;-59
2022/11/11 07:32:20;;;;;;;20.70;9.60;;;;;;;9.06;92.72;101709.05;100552;1295;95097;-59
2022/11/11 07:34:55;;;;;;;15.40;9.20;;;;;;;9.10;92.71;101703.11;100598;1288;82411;-56
2022/11/11 07:37:28;;;;;;;15.10;9.20;;;;;;;9.16;92.67;101703.17;100603;1287;86120;-57
2022/11/11 07:40:06;;;;;;;;;;;;;;;9.19;92.63;101705.42;100642;1302;81712;-58
2022/11/11 07:42:43;;;;;;;16.90;9.20;;;;;;;9.21;92.69;101703.57;100591;1296;97736;-59
2022/11/11 07:45:19;;;;;;;17.80;9.20;;;;;;;9.27;92.54;101697.58;100586;1296;93217;-58
2022/11/11 07:47:51;;;;;;;18.00;9.90;;;;;;;9.34;92.51;101701.21;100550;1293;83531;-58
2022/11/11 07:50:24;;;;;;;15.40;9.70;;;;;;;9.36;92.46;101695.97;100561;1294;88602;-58
2022/11/11 07:52:55;;;;;;;18.40;9.30;;;;;;;9.42;92.40;101699.93;100539;1296;82425;-57
2022/11/11 07:55:24;;;;;;;15.70;8.90;;;;;;;9.48;92.31;101702.59;100547;1288;98502;-58
2022/11/11 07:57:58;;;;;;;16.70;9.20;;;;;;;9.52;92.35;101710.09;100541;1290;95899;-58
2022/11/11 08:00:29;;;;;;;18.30;8.90;;;;;;;9.55;92.32;101706.21;100563;1294;82388;-56
2022/11/11 08:03:03;;;;;;;16.70;8.90;;;;;;;9.60;92.30;101710.76;100542;1287;86270;-57
2022/11/11 08:05:35;;;;;;;15.30;9.50;;;;;;;9.63;92.27;101714.77;100596;1294;81691;-58
2022/11/11 08:08:12;;;;;;;17.20;9.60;;;;;;;9.67;92.25;101722.80;100548;1288;98594;-59
2022/11/11 08:10:43;;;;;;;14.00;9.10;;;;;;;9.75;92.17;101727.00;100586;1285;94874;-58
2022/11/11 08:16:09;;;;;;;16.50;9.20;;;;;;;10.00;92.26;101725.38;100609;1296;89441;-59
2022/11/11 08:18:38;;;;;;;;;;;;;;;10.08;92.17;101720.29;100635;1296;82691;-60
2022/11/11 08:21:08;;;;;;;17.90;9.50;;;;;;;10.19;91.73;101720.52;100629;1289;98248;-58
2022/11/11 08:23:37;;;;;;;13.50;8.80;;;;;;;10.21;91.75;101722.55;100596;1294;93818;-58
2022/11/11 08:26:11;;;;;;;16.50;8.90;;;;;;;10.30;91.71;101721.66;100572;1294;82778;-59
2022/11/11 08:28:43;;;;;;;18.50;9.60;;;;;;;10.40;91.69;101728.75;100569;1295;88856;-59
2022/11/11 08:31:16;;;;;;;13.30;8.80;;;;;;;10.52;91.58;101733.95;100589;1294;81282;-57
2022/11/11 08:33:49;;;;;;;13.50;9.10;;;;;;;10.62;91.49;101736.16;100551;1288;99496;-58
2022/11/11 08:36:25;;;;;;;13.90;8.80;;;;;;;10.74;91.28;101742.02;100575;1296;94239;-60
2022/11/11 08:38:59;;;;;;;12.10;8.70;;;;;;;10.79;90.96;101737.27;100555;1294;83294;-60
2022/11/11 08:41:29;;;;;;;17.30;9.40;;;;;;;10.86;90.64;101730.83;100552;1296;89110;-57
2022/11/11 08:44:00;;;;;;;13.40;8.50;;;;;;;10.92;90.43;101726.54;100558;1281;80540;-57
2022/11/11 08:46:30;;;;;;;15.50;8.80;;;;;;;10.97;90.37;101724.59;100589;1289;98788;-57
2022/11/11 08:49:01;;;;;;;19.60;10.20;;;;;;;11.00;90.32;101723.95;100551;1296;92869;-57
2022/11/11 08:51:31;;;;;;;20.50;9.00;;;;;;;11.04;90.15;101730.38;100600;1294;83255;-58
2022/11/11 08:54:01;;;;;;;17.20;9.00;;;;;;;11.05;89.81;101732.34;100439;1298;89351;-58
2022/11/11 08:56:32;;;;;;;17.10;8.80;;;;;;;11.06;89.76;101738.20;100640;1294;79451;-58
2022/11/11 08:59:02;;;;;;;18.10;9.30;;;;;;;11.06;89.82;101742.02;100652;1296;98616;-58
2022/11/11 09:01:31;;;;;;;17.40;9.30;;;;;;;11.11;89.77;101742.58;100638;1296;93788;-60
2022/11/11 09:04:03;;;;;;;16.20;10.30;;;;;;;11.18;89.74;101747.91;100603;1288;83056;-60
2022/11/11 09:06:33;;;;;;;16.50;9.30;;;;;;;11.25;89.56;101748.31;100640;1288;89264;-58
2022/11/11 09:09:08;;;;;;;15.70;9.90;;;;;;;11.33;89.47;101749.47;100584;1288;81731;-58
2022/11/11 09:11:40;;;;;;;17.50;10.10;;;;;;;11.37;89.58;101746.02;100543;1294;97239;-57
2022/11/11 09:14:13;;;;;;;18.60;9.70;;;;;;;11.39;89.33;101747.01;100511;1296;94503;-59
2022/11/11 09:16:47;;;;;;;13.70;9.50;;;;;;;11.43;88.95;101744.27;100533;1294;83220;-59
2022/11/11 09:19:23;;;;;;;17.60;10.10;;;;;;;11.41;88.96;101742.71;100573;1294;87671;-58
2022/11/11 09:22:00;;;;;;;19.00;10.70;;;;;;;11.43;89.07;101741.20;100538;1296;79638;-58
2022/11/11 09:24:32;;;;;;;17.20;9.70;;;;;;;11.45;88.98;101736.98;100586;1293;99180;-58
2022/11/11 09:27:01;;;;;;;18.20;9.50;;;;;;;11.52;88.92;101736.24;100395;1298;95469;-58
2022/11/11 09:29:33;;;;;;;16.60;10.30;;;;;;;11.58;88.32;101732.38;100590;1294;83244;-57
2022/11/11 09:32:07;;;;;;;18.70;9.80;;;;;;;11.64;88.35;101724.65;100434;1296;90874;-57
2022/11/11 09:34:39;;;;;;;15.30;10.10;;;;;;;11.67;87.96;101713.80;100612;1288;80654;-59
2022/11/11 09:37:11;;;;;;;17.60;10.20;;;;;;;11.71;87.97;101711.81;100590;1295;99335;-58
2022/11/11 09:39:43;;;;;;;15.50;9.90;;;;;;;11.65;87.62;101710.14;100566;1294;95037;-58
2022/11/11 09:42:30;;;;;;;16.30;9.60;;;;;;;11.52;87.76;101716.76;100605;1294;82961;-57
2022/11/11 09:45:21;;;;;;;16.60;9.70;;;;;;;11.49;87.65;101718.77;100634;1288;87292;-59
2022/11/11 09:48:00;;;;;;;17.40;9.30;;;;;;;11.50;87.67;101727.30;100619;1289;80244;-59
2022/11/11 09:50:40;;;;;;;15.60;9.20;;;;;;;11.55;87.54;101722.02;100640;1293;98999;-57
2022/11/11 09:53:21;;;;;;;16.80;9.80;;;;;;;11.62;87.44;101723.48;100578;1288;94075;-58
2022/11/11 09:55:57;;;;;;;14.50;9.10;;;;;;;11.64;87.07;101721.73;100584;1294;83450;-60
2022/11/11 09:58:30;;;;;;;14.70;8.70;;;;;;;11.61;87.03;101715.19;100551;1296;88434;-59
2022/11/11 10:01:07;;;;;;;15.80;9.30;;;;;;;11.66;87.17;101712.16;100532;1288;81410;-60
2022/11/11 10:03:47;;;;;;;15.00;8.90;;;;;;;11.66;86.99;101704.79;100523;1296;98935;-60
2022/11/11 10:06:25;;;;;;;16.30;8.90;;;;;;;11.69;86.88;101700.15;100530;1288;96643;-61
2022/11/11 10:09:01;;;;;;;13.00;8.00;;;;;;;11.69;86.98;101693.45;100542;1294;81250;-59
2022/11/11 10:11:48;;;;;;;14.40;9.20;;;;;;;11.73;86.84;101695.58;100558;1296;88793;-58
2022/11/11 10:14:17;;;;;;;15.30;9.20;;;;;;;11.73;86.94;101705.15;100586;1294;80671;-58
2022/11/11 10:17:10;;;;;;;18.90;10.00;;;;;;;11.69;86.84;101699.05;100581;1296;99961;-57
2022/11/11 10:19:53;;;;;;;16.60;9.80;;;;;;;11.67;86.64;101699.74;100560;1296;94571;-55
2022/11/11 10:22:33;;;;;;;13.60;9.00;;;;;;;11.64;86.80;101693.25;100583;1294;80310;-56
2022/11/11 10:25:22;;;;;;;13.30;8.80;;;;;;;11.64;86.57;101687.52;100609;1288;85839;-57
2022/11/11 10:27:56;;;;;;;16.30;8.90;;;;;;;11.59;86.62;101678.26;100586;1296;80849;-57
2022/11/11 10:30:30;;;;;;;14.00;8.50;;;;;;;11.54;86.68;101676.13;100594;1293;99731;-60
2022/11/11 10:33:05;;;;;;;17.40;9.00;;;;;;;11.46;86.90;101677.36;100604;1294;95496;-60
2022/11/11 10:35:37;;;;;;;15.60;9.90;;;;;;;11.49;86.76;101683.32;100585;1292;82365;-58
2022/11/11 10:38:32;;;;;;;17.60;9.60;;;;;;;11.60;86.53;101690.77;100577;1295;87902;-57
2022/11/11 10:41:13;;;;;;;13.20;9.00;;;;;;;11.72;86.58;101692.23;100431;1287;82455;-58
2022/11/11 10:43:47;;;;;;;22.20;9.90;;;;;;;11.82;86.43;101695.86;100554;1296;96954;-59
2022/11/11 10:46:21;;;;;;;18.40;9.50;;;;;;;11.86;86.44;101700.61;100536;1293;94788;-59
2022/11/11 10:49:00;;;;;;;16.70;8.90;;;;;;;11.93;86.36;101698.23;100568;1288;82376;-59
2022/11/11 10:51:42;;;;;;;16.90;10.60;;;;;;;11.95;86.11;101698.77;100578;1295;89361;-57
2022/11/11 10:54:20;;;;;;;17.80;9.80;;;;;;;11.99;85.96;101696.31;100567;1294;80568;-57
2022/11/11 10:57:01;;;;;;;14.50;9.40;;;;;;;12.01;85.61;101690.83;100566;1288;98599;-58
2022/11/11 10:59:43;;;;;;;14.00;8.90;;;;;;;12.02;85.85;101688.55;100533;1289;94712;-57
2022/11/11 11:02:22;;;;;;;14.20;8.90;;;;;;;12.06;85.68;101684.16;100569;1288;80626;-56
2022/11/11 11:04:59;;;;;;;12.90;8.60;;;;;;;12.11;85.52;101679.84;100572;1290;87100;-60
2022/11/11 11:07:38;;;;;;;13.90;9.50;;;;;;;12.13;85.45;101679.42;100544;1296;82558;-60
2022/11/11 11:10:18;;;;;;;16.70;8.60;;;;;;;12.15;85.41;101676.15;100589;1294;98791;-58
2022/11/11 11:12:53;;;;;;;15.50;7.80;;;;;;;12.17;85.50;101669.27;100541;1288;93298;-58
2022/11/11 11:15:29;;;;;;;16.10;8.30;;;;;;;12.17;85.40;101669.27;100611;1288;82180;-58
2022/11/11 11:18:05;;;;;;;13.60;8.40;;;;;;;12.17;85.01;101668.84;100545;1288;88190;-60
2022/11/11 11:20:38;;;;;;;18.30;8.50;;;;;;;12.18;85.04;101667.45;100579;1294;81238;-59
2022/11/11 11:23:07;;;;;;;16.30;8.80;;;;;;;12.18;85.21;101659.48;100570;1294;97980;-59
2022/11/11 11:25:52;;;;;;;16.70;8.40;;;;;;;12.25;85.10;101655.52;100545;1291;94919;-59
2022/11/11 11:28:19;;;;;;;;;;;;;;;12.28;85.03;101654.48;100560;1296;80058;-60
2022/11/11 11:31:01;;;;;;;17.40;9.20;;;;;;;12.16;84.52;101649.08;100599;1291;88996;-59
2022/11/11 11:33:54;;;;;;;13.50;7.50;;;;;;;12.09;84.38;101643.42;100560;1295;81323;-59
2022/11/11 11:36:29;;;;;;;14.80;7.50;;;;;;;12.07;84.56;101650.85;100548;1290;98667;-57
2022/11/11 11:38:59;;;;;;;14.40;7.90;;;;;;;12.07;84.38;101651.02;100370;1297;94060;-58
2022/11/11 11:41:41;;;;;;;13.40;6.90;;;;;;;12.09;84.63;101651.35;100566;1296;83403;-60
2022/11/11 11:44:31;;;;;;;13.70;7.00;;;;;;;12.10;84.50;101651.73;100543;1291;88605;-59
2022/11/11 11:47:18;;;;;;;13.80;7.00;;;;;;;12.10;84.40;101654.16;100585;1294;82392;-58
2022/11/11 11:50:27;;;;;;;12.80;6.70;;;;;;;12.11;84.28;101658.40;100589;1296;97894;-57
2022/11/11 11:53:14;;;;;;;10.60;6.50;;;;;;;12.09;84.48;101667.62;100482;1294;95633;-58
2022/11/11 11:55:47;;;;;;;14.00;7.50;;;;;;;12.14;84.51;101672.41;100592;1291;80131;-60
2022/11/11 11:58:42;;;;;;;14.20;7.90;;;;;;;12.22;84.50;101674.58;100600;1289;89137;-59
2022/11/11 12:01:23;;;;;;;13.80;6.90;;;;;;;12.26;83.85;101657.93;100559;1289;81158;-57
2022/11/11 12:04:35;;;;;;;14.20;7.40;;;;;;;12.28;84.01;101647.36;100569;1288;99131;-59
2022/11/11 12:07:17;;;;;;;15.50;6.90;;;;;;;12.29;83.92;101644.75;100538;1281;94471;-58
2022/11/11 12:10:02;;;;;;;15.90;7.70;;;;;;;12.27;84.10;101645.70;100541;1294;82434;-59
2022/11/11 12:12:44;;;;;;;12.70;6.50;;;;;;;12.26;84.02;101646.58;100555;1292;88087;-60
2022/11/11 12:15:35;;;;;;;13.60;6.10;;;;;;;12.26;83.76;101653.42;100548;1296;81896;-60
2022/11/11 12:18:30;;;;;;;15.70;7.90;;;;;;;12.25;83.77;101657.66;100561;1295;98883;-58
2022/11/11 12:21:12;;;;;;;11.80;6.30;;;;;;;12.27;83.83;101656.95;100533;1296;94148;-57
2022/11/11 12:24:02;;;;;;;10.60;6.20;;;;;;;12.30;83.91;101660.75;100556;1294;82887;-60
2022/11/11 12:26:43;;;;;;;9.80;5.30;;;;;;;12.30;83.86;101665.34;100534;1294;88724;-59
2022/11/11 12:29:38;;;;;;;9.60;5.80;;;;;;;12.29;83.87;101666.56;100568;1291;80642;-58
2022/11/11 12:32:34;;;;;;;12.30;6.00;;;;;;;12.32;83.62;101671.80;100537;1280;100252;-57
2022/11/11 12:35:39;;;;;;;13.80;6.00;;;;;;;12.35;83.50;101681.11;100582;1294;94599;-59
2022/11/11 12:38:28;;;;;;;9.80;5.50;;;;;;;12.35;83.29;101677.35;100586;1290;82874;-60
2022/11/11 12:41:13;;;;;;;13.90;5.80;;;;;;;12.26;83.25;101675.41;100271;1282;447335;-58
2022/11/11 12:43:56;;;;;;;10.80;5.90;;;;;;;12.19;83.25;101677.81;100582;1291;81897;-59
2022/11/11 12:46:40;;;;;;;15.70;6.70;;;;;;;12.11;83.23;101687.72;100567;1293;98785;-58
2022/11/11 12:49:31;;;;;;;10.80;5.80;;;;;;;12.08;83.34;101698.34;100564;1288;95326;-59
2022/11/11 12:52:23;;;;;;;12.00;5.50;;;;;;;12.02;83.27;101690.39;100420;1296;82600;-58
2022/11/11 12:55:13;;;;;;;13.10;5.90;;;;;;;11.98;83.19;101683.64;100558;1296;86248;-58
2022/11/11 12:57:59;;;;;;;13.60;6.10;;;;;;;11.97;83.27;101676.66;100541;1294;80364;-56
2022/11/11 13:00:38;;;;;;;11.40;5.50;;;;;;;11.98;83.20;101663.36;100545;1294;99772;-57